Time;durP1;ratioP1;P1;durP2;ratioP2;P2;SDS_P1;SDS_P2;PMS_P1;PMS_P2;Temp;Humidity;BMP_temperature;BMP_pressure;BME280_temperature;BME280_humidity;BME280_pressure;Samples;Min_cycle;Max_cycle;Signal;HPM_P1;HPM_P2
2021/11/25 00:01:49;;;;;;;28.17;17.77;;;;;;;4.86;60.04;100311.28;4935508;28;96476;-76
2021/11/25 00:04:15;;;;;;;27.27;15.97;;;;;;;4.82;60.36;100309.56;4934573;28;96844;-76
2021/11/25 00:06:41;;;;;;;27.50;16.10;;;;;;;4.88;60.15;100313.84;4935205;28;96596;-76
2021/11/25 00:09:06;;;;;;;34.57;18.50;;;;;;;5.00;59.61;100305.88;4950006;28;99975;-76
2021/11/25 00:11:32;;;;;;;27.90;17.40;;;;;;;4.98;59.42;100303.31;4949939;28;96454;-76
2021/11/25 00:13:57;;;;;;;32.00;18.50;;;;;;;5.01;59.81;100306.78;4934324;28;96935;-76
2021/11/25 00:16:23;;;;;;;34.77;20.77;;;;;;;5.06;59.44;100297.16;4933631;28;97454;-76
2021/11/25 00:18:49;;;;;;;35.47;20.83;;;;;;;4.79;59.95;100298.34;4949876;28;97264;-76
2021/11/25 00:21:14;;;;;;;33.50;19.43;;;;;;;4.69;60.43;100293.25;4933742;28;96709;-76
2021/11/25 00:23:44;;;;;;;38.60;20.03;;;;;;;4.70;60.62;100294.94;4933850;28;96849;-76
2021/11/25 00:26:10;;;;;;;32.70;19.87;;;;;;;4.73;60.44;100287.13;4934912;28;97389;-76
2021/11/25 00:28:36;;;;;;;36.80;18.60;;;;;;;4.74;60.19;100287.97;4952185;28;100013;-77
2021/11/25 00:31:01;;;;;;;40.37;22.40;;;;;;;4.53;60.70;100291.66;4953674;28;96489;-76
2021/11/25 00:33:28;;;;;;;33.03;19.50;;;;;;;4.56;60.68;100291.63;4921008;28;96855;-76
2021/11/25 00:35:53;;;;;;;78.57;37.23;;;;;;;4.41;61.29;100289.19;4936266;28;100674;-76
2021/11/25 00:38:19;;;;;;;50.93;27.27;;;;;;;4.60;60.49;100276.88;4936646;28;97776;-76
2021/11/25 00:40:45;;;;;;;40.67;21.20;;;;;;;4.49;60.99;100276.97;4937252;28;96708;-76
2021/11/25 00:43:10;;;;;;;38.43;20.93;;;;;;;4.35;61.31;100269.31;4953555;28;96717;-76
2021/11/25 00:45:36;;;;;;;46.77;22.37;;;;;;;4.19;61.86;100266.00;4936948;28;97543;-77
2021/11/25 00:48:02;;;;;;;39.87;21.10;;;;;;;4.49;61.22;100261.38;4920049;28;100195;-76
2021/11/25 00:50:28;;;;;;;51.20;23.10;;;;;;;4.48;61.17;100254.44;4953283;28;96686;-77
2021/11/25 00:52:53;;;;;;;57.67;24.73;;;;;;;4.71;60.92;100267.19;4937081;28;96879;-77
2021/11/25 00:55:19;;;;;;;50.47;25.00;;;;;;;4.62;60.85;100268.16;4920389;28;100520;-76
2021/11/25 00:57:45;;;;;;;48.47;25.47;;;;;;;4.71;60.54;100262.00;4920541;28;97739;-76
2021/11/25 01:00:15;;;;;;;44.90;22.93;;;;;;;4.62;60.43;100262.09;4952441;28;96503;-77
2021/11/25 01:02:41;;;;;;;46.57;22.57;;;;;;;4.66;60.55;100259.47;4938294;28;96486;-77
2021/11/25 01:05:07;;;;;;;39.37;21.20;;;;;;;4.65;60.39;100255.13;4936712;28;97443;-76
2021/11/25 01:07:33;;;;;;;48.63;21.97;;;;;;;4.74;60.40;100251.56;4952773;28;96760;-76
2021/11/25 01:09:59;;;;;;;44.57;21.30;;;;;;;4.68;60.47;100236.91;4936888;28;96424;-76
2021/11/25 01:12:28;;;;;;;49.53;23.53;;;;;;;4.50;60.79;100244.91;4953002;28;96842;-77
2021/11/25 01:14:53;;;;;;;47.90;22.57;;;;;;;4.64;60.34;100234.34;4952333;28;96922;-76
2021/11/25 01:17:19;;;;;;;48.30;22.87;;;;;;;4.38;61.04;100235.47;4920673;28;100481;-77
2021/11/25 01:19:45;;;;;;;48.23;23.47;;;;;;;4.36;61.01;100232.03;4953066;28;96639;-77
2021/11/25 01:22:10;;;;;;;48.17;23.33;;;;;;;4.30;61.55;100232.97;4920325;28;96786;-76
2021/11/25 01:24:36;;;;;;;44.07;23.20;;;;;;;4.32;61.06;100223.41;4951816;28;100709;-77
2021/11/25 01:27:02;;;;;;;44.17;23.03;;;;;;;4.22;61.88;100224.41;4952338;28;100181;-77
2021/11/25 01:29:27;;;;;;;44.33;23.50;;;;;;;4.11;61.71;100217.56;4952595;28;96589;-76
2021/11/25 01:31:53;;;;;;;49.33;24.40;;;;;;;4.26;61.59;100220.88;4936281;28;96861;-76
2021/11/25 01:34:19;;;;;;;50.07;24.10;;;;;;;4.17;61.69;100207.97;4936344;28;97652;-77
2021/11/25 01:36:44;;;;;;;46.83;22.77;;;;;;;4.19;61.75;100211.44;4952163;28;100387;-76
2021/11/25 01:39:10;;;;;;;50.57;24.93;;;;;;;4.00;62.35;100205.53;4936855;28;96375;-76
2021/11/25 01:41:38;;;;;;;49.70;24.67;;;;;;;4.09;62.14;100189.84;4953059;28;96874;-76
2021/11/25 01:44:03;;;;;;;46.10;24.27;;;;;;;3.92;62.05;100190.91;4919743;28;100596;-76
2021/11/25 01:46:29;;;;;;;55.97;26.03;;;;;;;3.79;62.68;100188.41;4935735;28;98534;-76
2021/11/25 01:48:55;;;;;;;48.63;24.57;;;;;;;3.74;63.15;100189.31;4936024;28;96519;-77
2021/11/25 01:51:22;;;;;;;52.13;24.87;;;;;;;3.80;62.89;100174.53;4952297;28;96758;-77
2021/11/25 01:53:48;;;;;;;48.63;23.10;;;;;;;3.75;63.15;100180.66;4952097;28;97299;-77
2021/11/25 01:56:15;;;;;;;46.00;24.77;;;;;;;3.96;62.52;100174.44;4935940;28;97253;-77
2021/11/25 01:58:41;;;;;;;48.80;23.70;;;;;;;3.78;62.96;100178.91;4919979;28;96493;-76
2021/11/25 02:01:09;;;;;;;47.00;23.23;;;;;;;3.98;62.67;100170.06;4919522;28;96781;-77
2021/11/25 02:03:35;;;;;;;50.13;23.57;;;;;;;4.02;62.40;100166.56;4935309;28;100766;-77
2021/11/25 02:06:01;;;;;;;46.57;23.93;;;;;;;3.95;62.48;100157.09;4935680;28;98297;-76
2021/11/25 02:08:27;;;;;;;42.97;21.87;;;;;;;4.14;62.01;100163.84;4952130;28;96562;-76
2021/11/25 02:10:55;;;;;;;47.87;23.33;;;;;;;3.97;62.15;100156.22;4936091;28;96718;-77
2021/11/25 02:13:21;;;;;;;47.07;23.93;;;;;;;4.01;62.16;100154.44;4918664;28;100555;-76
2021/11/25 02:15:48;;;;;;;43.47;23.00;;;;;;;3.95;62.52;100149.31;4936785;28;97466;-76
2021/11/25 02:18:17;;;;;;;47.60;23.80;;;;;;;4.05;62.29;100151.81;4952092;28;96545;-76
2021/11/25 02:20:46;;;;;;;43.30;22.80;;;;;;;4.08;61.83;100149.19;4919370;28;96811;-76
2021/11/25 02:23:13;;;;;;;53.77;25.30;;;;;;;3.89;62.32;100145.03;4951546;28;97743;-77
2021/11/25 02:25:39;;;;;;;41.73;23.07;;;;;;;3.84;62.44;100141.63;4936509;28;97464;-76
2021/11/25 02:28:05;;;;;;;49.03;24.60;;;;;;;3.71;63.03;100140.03;4935785;28;96592;-76
2021/11/25 02:30:31;;;;;;;50.13;26.27;;;;;;;3.60;63.16;100134.91;4935544;28;96782;-76
2021/11/25 02:32:57;;;;;;;44.53;23.00;;;;;;;3.54;63.42;100130.63;4935131;28;97952;-76
2021/11/25 02:35:27;;;;;;;45.93;23.00;;;;;;;3.46;63.95;100127.25;4935080;28;100379;-77
2021/11/25 02:37:54;;;;;;;50.93;25.60;;;;;;;3.54;63.55;100132.38;4935026;28;96861;-77
2021/11/25 02:40:23;;;;;;;43.13;23.57;;;;;;;3.69;63.17;100115.78;4919075;28;96810;-76
2021/11/25 02:42:54;;;;;;;45.50;22.17;;;;;;;3.62;63.00;100108.06;4935036;28;97949;-76
2021/11/25 02:45:20;;;;;;;45.73;23.73;;;;;;;3.63;63.11;100102.00;4919245;28;97421;-76
2021/11/25 02:47:46;;;;;;;46.43;23.47;;;;;;;3.55;63.38;100100.34;4951735;28;96645;-76
2021/11/25 02:50:15;;;;;;;39.87;22.70;;;;;;;3.30;63.89;100095.38;4951320;28;96685;-76
2021/11/25 02:52:41;;;;;;;46.27;23.93;;;;;;;3.28;63.76;100086.72;4933355;28;99468;-76
2021/11/25 02:55:08;;;;;;;44.30;22.33;;;;;;;3.31;64.08;100089.28;4951505;28;96388;-76
2021/11/25 02:57:35;;;;;;;43.27;23.73;;;;;;;3.36;63.75;100073.69;4935071;28;96622;-76
2021/11/25 03:00:00;;;;;;;52.23;25.03;;;;;;;3.22;63.79;100072.94;4934472;28;96811;-76
2021/11/25 03:02:26;;;;;;;48.73;24.33;;;;;;;3.08;64.47;100073.06;4934164;28;98903;-77
2021/11/25 03:04:51;;;;;;;45.47;24.60;;;;;;;3.03;64.35;100072.25;4951178;28;97163;-77
2021/11/25 03:07:17;;;;;;;46.77;23.07;;;;;;;2.98;64.52;100074.84;4951453;28;96599;-77
2021/11/25 03:09:42;;;;;;;43.03;23.00;;;;;;;2.80;64.90;100072.41;4918712;28;96968;-76
2021/11/25 03:12:09;;;;;;;50.50;23.63;;;;;;;2.78;65.11;100077.56;4951015;28;97594;-76
2021/11/25 03:14:34;;;;;;;40.43;22.63;;;;;;;2.92;64.70;100073.16;4934291;28;100170;-77
2021/11/25 03:17:00;;;;;;;42.03;24.13;;;;;;;3.08;64.29;100060.94;4934970;28;96514;-76
2021/11/25 03:19:26;;;;;;;39.47;21.67;;;;;;;3.25;63.86;100058.22;4935321;28;96744;-77
2021/11/25 03:21:51;;;;;;;47.10;23.83;;;;;;;3.18;63.62;100041.00;4934539;28;97823;-76
2021/11/25 03:24:17;;;;;;;55.73;25.03;;;;;;;3.00;64.15;100043.75;4934620;28;97413;-76
2021/11/25 03:26:43;;;;;;;57.90;23.97;;;;;;;2.99;64.49;100044.59;4950441;28;96503;-76
2021/11/25 03:29:08;;;;;;;53.37;23.27;;;;;;;3.06;64.04;100041.09;4951169;28;96790;-76
2021/11/25 03:31:34;;;;;;;60.83;25.53;;;;;;;3.04;63.98;100037.66;4950645;28;97600;-76
2021/11/25 03:34:02;;;;;;;51.70;24.07;;;;;;;3.11;63.45;100026.34;4917952;28;100629;-76
2021/11/25 03:36:28;;;;;;;58.47;23.77;;;;;;;3.06;63.58;100028.13;4950617;28;96578;-76
2021/11/25 03:38:54;;;;;;;43.40;22.80;;;;;;;3.11;63.26;100016.84;4950578;28;96781;-77
2021/11/25 03:41:22;;;;;;;48.60;23.50;;;;;;;3.23;63.29;100009.81;4917949;28;100768;-77
2021/11/25 03:43:48;;;;;;;42.23;22.60;;;;;;;3.33;62.80;100007.13;4934554;28;97629;-76
2021/11/25 03:46:13;;;;;;;44.60;23.13;;;;;;;3.21;62.90;100001.19;4934280;28;96583;-76
2021/11/25 03:48:39;;;;;;;46.53;25.00;;;;;;;3.22;62.97;99998.56;4934611;28;96840;-76
2021/11/25 03:51:08;;;;;;;47.17;25.13;;;;;;;3.01;63.69;99998.78;4949947;28;97573;-76
2021/11/25 03:53:36;;;;;;;42.80;24.63;;;;;;;3.11;63.59;99992.63;4933629;28;97441;-76
2021/11/25 03:56:01;;;;;;;45.47;24.43;;;;;;;2.89;64.13;99990.22;4950411;28;96445;-77
2021/11/25 03:58:27;;;;;;;42.93;23.87;;;;;;;2.89;63.84;99987.63;4918012;28;96439;-76
2021/11/25 04:00:53;;;;;;;43.47;23.50;;;;;;;2.87;64.17;99976.41;4917570;28;100340;-77
2021/11/25 04:03:21;;;;;;;42.57;23.13;;;;;;;3.11;63.52;99974.47;4949725;28;100254;-76
2021/11/25 04:05:46;;;;;;;43.63;24.30;;;;;;;3.10;63.35;99968.44;4934193;28;96534;-77
2021/11/25 04:08:12;;;;;;;44.17;24.23;;;;;;;3.21;63.04;99960.56;4934288;28;96860;-76
2021/11/25 04:10:39;;;;;;;45.43;25.40;;;;;;;3.09;63.16;99960.69;4933910;28;97387;-77
2021/11/25 04:13:05;;;;;;;48.30;25.10;;;;;;;2.76;63.87;99956.63;4950062;28;97708;-76
2021/11/25 04:15:31;;;;;;;46.00;26.00;;;;;;;2.72;64.23;99953.19;4935082;28;96351;-76
2021/11/25 04:17:56;;;;;;;41.43;24.90;;;;;;;2.82;64.29;99947.09;4950410;28;96687;-76
2021/11/25 04:20:22;;;;;;;43.60;26.23;;;;;;;2.79;63.99;99941.91;4933855;28;97828;-76
2021/11/25 04:22:47;;;;;;;42.80;25.13;;;;;;;2.75;64.26;99945.41;4934901;28;97170;-77
2021/11/25 04:25:14;;;;;;;51.00;26.97;;;;;;;2.61;64.60;99944.63;4934066;28;96640;-77
2021/11/25 04:27:41;;;;;;;48.17;26.03;;;;;;;2.69;64.44;99942.84;4933688;28;96845;-76
2021/11/25 04:30:22;;;;;;;48.47;26.17;;;;;;;2.71;64.05;99943.72;4917366;28;99603;-77
2021/11/25 04:35:33;;;;;;;45.87;26.90;;;;;;;2.61;64.23;99937.72;4933658;28;96474;-77
2021/11/25 04:38:01;;;;;;;45.70;27.17;;;;;;;2.37;64.67;99931.00;4933533;28;96765;-76
2021/11/25 04:40:27;;;;;;;45.03;26.73;;;;;;;2.43;65.40;99937.88;4949162;28;100626;-76
2021/11/25 04:42:53;;;;;;;47.00;25.33;;;;;;;2.56;64.63;99918.78;4933211;28;100457;-77
2021/11/25 04:45:19;;;;;;;46.50;25.53;;;;;;;2.38;65.11;99917.16;4934053;28;96364;-76
2021/11/25 04:47:44;;;;;;;45.97;26.00;;;;;;;2.37;64.67;99912.00;4917352;28;96462;-77
2021/11/25 04:50:10;;;;;;;45.23;26.70;;;;;;;2.27;65.51;99908.63;4933564;28;97505;-77
2021/11/25 04:52:36;;;;;;;45.37;26.40;;;;;;;2.41;65.40;99900.75;4949278;28;100473;-77
2021/11/25 04:55:02;;;;;;;43.93;26.33;;;;;;;2.63;63.85;99891.94;4917172;28;96432;-76
2021/11/25 04:57:27;;;;;;;48.90;27.13;;;;;;;2.68;63.88;99891.91;4950246;28;96800;-76
2021/11/25 04:59:53;;;;;;;41.93;25.00;;;;;;;2.76;63.86;99895.25;4916678;28;100737;-77
2021/11/25 05:02:19;;;;;;;52.80;27.10;;;;;;;2.74;64.00;99904.81;4934539;28;97416;-76
2021/11/25 05:04:44;;;;;;;42.30;26.27;;;;;;;2.71;64.24;99897.06;4932848;28;96752;-76
2021/11/25 05:07:10;;;;;;;43.43;25.33;;;;;;;2.58;63.86;99891.09;4933199;28;96682;-76
2021/11/25 05:09:35;;;;;;;47.03;25.17;;;;;;;2.63;64.55;99888.50;4948947;28;99055;-76
2021/11/25 05:12:01;;;;;;;46.10;25.37;;;;;;;2.76;63.95;99877.13;4932886;28;100641;-76
2021/11/25 05:14:26;;;;;;;44.63;25.43;;;;;;;2.83;63.53;99883.13;4933775;28;96582;-76
2021/11/25 05:16:52;;;;;;;39.70;25.43;;;;;;;2.89;62.87;99880.47;4936648;28;96686;-76
2021/11/25 05:19:18;;;;;;;43.33;24.67;;;;;;;2.89;63.23;99876.13;4936500;28;97468;-76
2021/11/25 05:21:44;;;;;;;41.53;24.77;;;;;;;2.89;62.95;99872.69;4936253;28;100500;-75
2021/11/25 05:24:10;;;;;;;44.13;25.10;;;;;;;2.74;63.17;99873.69;4936415;28;96368;-75
2021/11/25 05:26:35;;;;;;;45.00;25.87;;;;;;;2.73;63.53;99877.16;4936526;28;96740;-76
2021/11/25 05:29:01;;;;;;;45.27;25.30;;;;;;;2.73;63.10;99869.38;4951617;28;100858;-75
2021/11/25 05:31:30;;;;;;;40.50;23.53;;;;;;;2.74;62.95;99863.34;4936169;28;97281;-77
2021/11/25 05:33:56;;;;;;;43.53;25.67;;;;;;;2.65;63.59;99872.06;4936101;28;96626;-76
2021/11/25 05:36:22;;;;;;;40.63;24.53;;;;;;;2.61;63.47;99870.34;4936246;28;96622;-76
2021/11/25 05:38:48;;;;;;;44.80;24.30;;;;;;;2.60;63.17;99858.28;4951721;28;100919;-76
2021/11/25 05:41:14;;;;;;;38.13;24.03;;;;;;;2.56;63.41;99866.97;4935792;28;100288;-76
2021/11/25 05:43:40;;;;;;;37.73;22.80;;;;;;;2.58;63.44;99857.41;4935898;28;96434;-77
2021/11/25 05:46:05;;;;;;;47.57;25.53;;;;;;;2.51;63.51;99858.34;4936509;28;96766;-76
2021/11/25 05:48:31;;;;;;;43.90;26.83;;;;;;;2.25;64.12;99853.38;4951788;28;100672;-76
2021/11/25 05:50:56;;;;;;;40.80;24.80;;;;;;;2.11;64.66;99853.47;4952078;28;97114;-76
2021/11/25 05:53:22;;;;;;;45.67;25.50;;;;;;;1.94;65.26;99848.41;4919286;28;96568;-76
2021/11/25 05:55:48;;;;;;;43.37;23.87;;;;;;;1.72;66.16;99847.69;4952245;28;96724;-75
2021/11/25 05:58:14;;;;;;;42.20;24.23;;;;;;;1.98;65.53;99847.53;4951908;28;99984;-75
2021/11/25 06:00:40;;;;;;;42.60;24.77;;;;;;;2.08;65.35;99843.16;4951281;28;100270;-76
2021/11/25 06:03:05;;;;;;;46.93;26.20;;;;;;;2.08;64.53;99850.06;4936071;28;96552;-76
2021/11/25 06:05:31;;;;;;;42.93;25.33;;;;;;;1.93;65.49;99857.06;4951853;28;96789;-77
2021/11/25 06:07:59;;;;;;;45.97;24.23;;;;;;;2.02;65.37;99841.44;4935369;28;100631;-77
2021/11/25 06:10:25;;;;;;;40.73;24.87;;;;;;;2.15;65.25;99843.94;4937162;28;97270;-77
2021/11/25 06:12:52;;;;;;;45.43;26.23;;;;;;;1.92;65.24;99831.16;4935564;28;96544;-76
2021/11/25 06:15:19;;;;;;;42.40;24.33;;;;;;;1.57;66.28;99845.16;4935645;28;96802;-76
2021/11/25 06:17:48;;;;;;;49.20;27.00;;;;;;;1.52;66.29;99844.34;4951500;28;97770;-77
2021/11/25 06:20:15;;;;;;;49.00;26.17;;;;;;;1.40;66.95;99850.44;4951710;28;99908;-76
2021/11/25 06:22:43;;;;;;;41.97;24.90;;;;;;;1.27;66.37;99841.84;4952525;28;96417;-76
2021/11/25 06:25:10;;;;;;;43.03;23.60;;;;;;;1.24;66.63;99833.25;4903507;28;96757;-76
2021/11/25 06:27:36;;;;;;;39.40;21.93;;;;;;;1.28;66.83;99833.25;4919422;28;98113;-76
2021/11/25 06:30:04;;;;;;;36.17;21.90;;;;;;;1.40;66.08;99832.34;4952915;28;97692;-77
2021/11/25 06:32:30;;;;;;;40.23;23.33;;;;;;;1.53;65.60;99835.72;4919945;28;96504;-76
2021/11/25 06:34:56;;;;;;;40.47;21.63;;;;;;;1.65;65.55;99848.56;4936280;28;96784;-76
2021/11/25 06:37:23;;;;;;;40.57;21.37;;;;;;;1.80;64.78;99839.88;4935130;28;100459;-76
2021/11/25 06:39:49;;;;;;;35.60;22.03;;;;;;;1.89;64.17;99841.53;4935191;28;97542;-76
2021/11/25 06:42:15;;;;;;;26.87;17.00;;;;;;;2.09;63.12;99841.41;4935301;28;96577;-76
2021/11/25 06:44:40;;;;;;;28.07;17.93;;;;;;;2.11;63.41;99830.16;4935439;28;96774;-76
2021/11/25 06:47:06;;;;;;;29.20;18.10;;;;;;;2.23;62.86;99837.84;4919061;28;97780;-77
2021/11/25 06:49:32;;;;;;;25.57;18.23;;;;;;;2.23;63.29;99843.03;4934726;28;100730;-76
2021/11/25 06:51:57;;;;;;;25.17;17.47;;;;;;;2.33;63.21;99837.75;4919064;28;96668;-75
2021/11/25 06:54:23;;;;;;;31.80;18.43;;;;;;;2.33;63.44;99841.25;4935162;28;96836;-78
2021/11/25 06:56:48;;;;;;;32.40;18.80;;;;;;;2.38;63.85;99828.22;4950997;28;98629;-76
2021/11/25 06:59:15;;;;;;;28.23;17.37;;;;;;;2.47;63.66;99828.13;4951063;28;97740;-76
2021/11/25 07:01:40;;;;;;;24.63;17.07;;;;;;;2.52;63.60;99818.59;4919116;28;96484;-76
2021/11/25 07:04:06;;;;;;;27.53;16.83;;;;;;;2.65;63.20;99820.22;4936560;28;96832;-76
2021/11/25 07:06:33;;;;;;;29.27;19.23;;;;;;;2.72;63.00;99827.03;4934219;28;100050;-76
2021/11/25 07:08:59;;;;;;;26.03;17.40;;;;;;;2.72;63.14;99828.78;4934876;28;97460;-77
2021/11/25 07:11:27;;;;;;;27.97;19.60;;;;;;;2.82;63.42;99827.84;4935041;28;96674;-77
2021/11/25 07:13:53;;;;;;;25.77;17.23;;;;;;;2.87;62.93;99825.19;4934993;28;96905;-77
2021/11/25 07:16:18;;;;;;;26.37;17.37;;;;;;;2.98;62.74;99815.53;4917934;28;99604;-76
2021/11/25 07:18:44;;;;;;;26.77;19.07;;;;;;;3.08;62.79;99801.59;4901985;28;101183;-76
2021/11/25 07:21:09;;;;;;;28.67;18.90;;;;;;;3.29;62.16;99813.47;4935033;28;96416;-76
2021/11/25 07:23:35;;;;;;;31.60;18.23;;;;;;;3.43;61.82;99812.41;4918970;28;96876;-76
2021/11/25 07:26:02;;;;;;;25.80;18.00;;;;;;;3.59;61.35;99813.94;4918172;28;100571;-76
2021/11/25 07:28:28;;;;;;;26.00;17.40;;;;;;;3.83;60.73;99807.53;4950244;28;100479;-76
2021/11/25 07:30:53;;;;;;;29.37;17.83;;;;;;;4.12;60.03;99801.88;4950384;28;96693;-76
2021/11/25 07:33:19;;;;;;;29.27;18.23;;;;;;;4.46;59.18;99791.78;4950876;28;96861;-76
2021/11/25 07:35:46;;;;;;;30.77;19.20;;;;;;;4.93;57.77;99799.59;4933784;28;100447;-76
2021/11/25 07:38:12;;;;;;;26.27;17.17;;;;;;;5.29;56.84;99804.97;4948806;28;97481;-76
2021/11/25 07:40:38;;;;;;;26.23;18.33;;;;;;;5.66;56.42;99797.22;4917668;28;96608;-76
2021/11/25 07:43:04;;;;;;;26.50;18.20;;;;;;;5.96;55.53;99797.44;4949975;28;96774;-76
2021/11/25 07:45:31;;;;;;;25.03;18.20;;;;;;;6.28;54.93;99817.53;4935123;28;97927;-77
2021/11/25 07:47:57;;;;;;;26.60;18.83;;;;;;;6.51;54.19;99809.13;4917790;28;99378;-77
2021/11/25 07:50:26;;;;;;;25.83;18.00;;;;;;;7.00;53.90;99797.38;4950262;28;96415;-77
2021/11/25 07:52:52;;;;;;;27.80;18.23;;;;;;;7.37;52.50;99804.19;4933721;28;96731;-77
2021/11/25 07:55:19;;;;;;;24.33;17.63;;;;;;;7.80;51.34;99795.94;4933215;28;100646;-76
2021/11/25 07:57:45;;;;;;;26.23;17.33;;;;;;;8.01;50.44;99799.63;4934423;28;97471;-76
2021/11/25 08:00:13;;;;;;;25.90;18.45;;;;;;;8.06;50.53;99799.47;4933589;28;96714;-77
2021/11/25 08:02:39;;;;;;;26.95;18.00;;;;;;;7.95;50.62;99784.13;4901667;28;96784;-77
2021/11/25 08:05:05;;;;;;;23.73;17.88;;;;;;;8.00;50.44;99782.22;4933372;28;100636;-75
2021/11/25 08:07:31;;;;;;;24.67;18.70;;;;;;;8.26;50.02;99778.78;4917653;28;97157;-76
2021/11/25 08:09:56;;;;;;;23.80;18.15;;;;;;;8.65;49.37;99783.59;4950382;28;96566;-75
2021/11/25 08:12:22;;;;;;;24.90;18.15;;;;;;;8.72;48.49;99784.22;4950467;28;96845;-75
2021/11/25 08:14:47;;;;;;;24.02;18.38;;;;;;;8.76;48.48;99772.75;4933815;28;97370;-77
2021/11/25 08:17:13;;;;;;;29.55;17.95;;;;;;;9.00;47.62;99771.88;4949239;28;97472;-75
2021/11/25 08:19:39;;;;;;;26.73;18.98;;;;;;;9.24;47.98;99772.72;4933110;28;96510;-77
2021/11/25 08:22:05;;;;;;;21.38;17.48;;;;;;;9.51;46.96;99760.38;4933338;28;96716;-76
2021/11/25 08:24:30;;;;;;;32.53;22.05;;;;;;;9.44;46.66;99743.16;4916898;28;97372;-76
2021/11/25 08:26:56;;;;;;;25.73;18.63;;;;;;;9.41;47.79;99751.13;4933307;28;97473;-76
2021/11/25 08:29:22;;;;;;;24.95;18.08;;;;;;;9.88;47.01;99748.41;4917481;28;96581;-78
2021/11/25 08:31:48;;;;;;;23.23;18.58;;;;;;;10.15;45.82;99750.81;4949891;28;96666;-78
2021/11/25 08:34:14;;;;;;;33.70;22.77;;;;;;;10.37;44.94;99745.56;4933523;28;97937;-78
2021/11/25 08:36:40;;;;;;;27.33;20.13;;;;;;;10.50;45.19;99746.78;4917462;28;97737;-77
2021/11/25 08:39:06;;;;;;;24.27;19.13;;;;;;;10.82;44.40;99739.25;4934410;28;96520;-79
2021/11/25 08:41:32;;;;;;;25.77;19.35;;;;;;;10.84;44.64;99737.41;4933267;28;96858;-78
2021/11/25 08:43:57;;;;;;;23.95;19.15;;;;;;;11.05;44.21;99730.34;4932749;28;97900;-77
2021/11/25 08:46:23;;;;;;;24.92;19.17;;;;;;;11.09;44.25;99722.28;4933110;28;97787;-77
2021/11/25 08:48:49;;;;;;;25.90;19.65;;;;;;;11.21;43.80;99717.38;4934697;28;96445;-77
2021/11/25 08:51:14;;;;;;;26.48;19.25;;;;;;;11.54;43.05;99725.44;4938041;28;96831;-77
2021/11/25 08:53:40;;;;;;;25.20;19.77;;;;;;;11.65;43.37;99719.69;4952897;28;97895;-77
2021/11/25 08:56:08;;;;;;;24.30;19.50;;;;;;;11.82;42.65;99713.63;4936426;28;97318;-75
2021/11/25 08:58:34;;;;;;;23.95;18.00;;;;;;;12.26;42.46;99713.22;4937829;28;96583;-77
2021/11/25 09:01:00;;;;;;;24.02;19.30;;;;;;;12.37;41.84;99717.00;4920568;28;96761;-77
2021/11/25 09:03:26;;;;;;;26.27;19.70;;;;;;;12.37;41.74;99717.00;4937707;28;97542;-76
2021/11/25 09:05:52;;;;;;;24.65;18.48;;;;;;;12.33;41.71;99717.22;4952387;28;97330;-77
2021/11/25 09:08:18;;;;;;;21.17;18.50;;;;;;;12.13;42.25;99712.97;4952394;28;96589;-77
2021/11/25 09:10:44;;;;;;;24.55;19.88;;;;;;;12.49;41.03;99707.63;4920248;28;96854;-78
2021/11/25 09:13:10;;;;;;;30.85;20.92;;;;;;;12.43;41.06;99718.47;4952862;28;97290;-78
2021/11/25 09:15:39;;;;;;;24.63;20.77;;;;;;;12.00;41.63;99710.09;4952426;28;97437;-78
2021/11/25 09:18:06;;;;;;;26.05;21.23;;;;;;;12.39;41.74;99715.16;4936511;28;96558;-78
2021/11/25 09:20:38;;;;;;;29.90;21.48;;;;;;;12.60;40.76;99693.94;4936739;28;96840;-77
2021/11/25 09:23:06;;;;;;;25.75;19.88;;;;;;;12.67;40.71;99693.50;4952417;28;97770;-78
2021/11/25 09:25:32;;;;;;;29.90;22.65;;;;;;;12.60;40.91;99696.56;4936431;28;97189;-77
2021/11/25 09:28:00;;;;;;;29.10;22.13;;;;;;;12.63;40.90;99684.06;4952460;28;96638;-77
2021/11/25 09:30:26;;;;;;;28.38;21.75;;;;;;;12.48;40.86;99690.16;4952679;28;96782;-77
2021/11/25 09:32:52;;;;;;;25.40;20.75;;;;;;;12.50;40.94;99680.38;4936860;28;97422;-77
2021/11/25 09:35:19;;;;;;;30.70;23.05;;;;;;;12.57;41.37;99675.66;4952455;28;97130;-78
2021/11/25 09:37:47;;;;;;;25.90;20.63;;;;;;;12.89;40.63;99666.88;4936033;28;96600;-78
2021/11/25 09:40:24;;;;;;;37.10;27.30;;;;;;;12.37;40.90;99668.78;4936410;28;96727;-78
2021/11/25 09:42:51;;;;;;;38.92;28.42;;;;;;;11.72;41.99;99664.13;4935735;28;100545;-78
2021/11/25 09:45:21;;;;;;;34.08;24.88;;;;;;;11.63;42.71;99661.91;4952147;28;99371;-78
2021/11/25 09:47:47;;;;;;;29.70;23.13;;;;;;;11.71;42.75;99657.13;4951538;28;96624;-78
2021/11/25 09:50:12;;;;;;;35.10;23.77;;;;;;;11.94;42.13;99656.03;4952576;28;96963;-79
2021/11/25 09:52:38;;;;;;;33.50;25.05;;;;;;;12.09;42.77;99648.28;4951927;28;100552;-77
2021/11/25 09:55:04;;;;;;;35.53;25.13;;;;;;;12.04;42.38;99652.94;4936946;28;97361;-79
2021/11/25 09:57:29;;;;;;;29.13;21.90;;;;;;;12.31;47.37;99648.06;4935245;28;96440;-77
2021/11/25 09:59:55;;;;;;;33.08;23.70;;;;;;;12.22;42.56;99652.00;4951197;28;96804;-79
2021/11/25 10:02:20;;;;;;;31.67;25.02;;;;;;;11.63;43.08;99650.56;4935260;28;101034;-77
2021/11/25 10:04:46;;;;;;;35.22;24.52;;;;;;;11.31;43.61;99645.94;4903518;28;99723;-76
2021/11/25 10:07:28;;;;;;;33.08;23.33;;;;;;;11.33;43.98;99645.84;4937258;28;96386;-77
2021/11/25 10:09:54;;;;;;;30.15;22.58;;;;;;;11.43;43.80;99641.00;4937322;28;96386;-76
2021/11/25 10:12:36;;;;;;;27.90;22.50;;;;;;;11.32;44.21;99636.28;4936931;28;97413;-77
2021/11/25 10:15:29;;;;;;;32.00;23.02;;;;;;;11.14;43.88;99631.88;4951706;28;97657;-77
2021/11/25 10:17:56;;;;;;;34.22;25.52;;;;;;;10.92;44.11;99625.03;4937111;28;96527;-77
2021/11/25 10:20:21;;;;;;;30.52;22.40;;;;;;;10.81;44.55;99628.13;4919846;28;96780;-77
2021/11/25 10:23:04;;;;;;;27.45;22.17;;;;;;;10.67;44.23;99622.66;4935944;28;97364;-77
2021/11/25 10:25:50;;;;;;;31.35;22.77;;;;;;;10.70;44.83;99626.91;4951444;28;100160;-77
2021/11/25 10:28:32;;;;;;;34.95;24.88;;;;;;;10.71;44.37;99618.16;4951563;28;96599;-77
2021/11/25 10:31:15;;;;;;;;;;;;;;;10.76;44.46;99616.13;4936293;28;96516;-77
2021/11/25 10:34:07;;;;;;;30.67;20.77;;;;;;;10.06;45.20;99617.47;4936332;28;97653;-76
2021/11/25 10:41:47;;;;;;;28.38;21.70;;;;;;;9.49;46.77;99606.75;4935976;28;96557;-77
2021/11/25 10:44:23;;;;;;;29.02;20.23;;;;;;;9.35;47.74;99609.94;4935309;28;97567;-78
2021/11/25 10:47:07;;;;;;;25.45;18.33;;;;;;;9.68;46.04;99586.72;4918814;28;100637;-77
2021/11/25 10:49:42;;;;;;;28.05;20.52;;;;;;;9.43;45.92;99600.00;4918891;28;96539;-77
2021/11/25 10:52:17;;;;;;;25.58;19.65;;;;;;;9.09;46.91;99582.16;4918987;28;96803;-77
2021/11/25 10:54:52;;;;;;;24.77;18.20;;;;;;;8.82;46.97;99579.72;4936082;28;97308;-76
2021/11/25 10:57:19;;;;;;;24.58;19.45;;;;;;;8.56;47.45;99580.69;4936259;28;97321;-76
2021/11/25 10:59:49;;;;;;;27.27;19.40;;;;;;;8.30;47.70;99592.09;4918075;28;96832;-76
2021/11/25 11:02:22;;;;;;;24.88;19.20;;;;;;;8.01;48.21;99589.66;4934704;28;96558;-76
2021/11/25 11:04:48;;;;;;;25.80;19.95;;;;;;;8.10;48.14;99582.34;4934311;28;100241;-77
2021/11/25 11:07:43;;;;;;;28.40;19.33;;;;;;;8.02;47.98;99578.28;4935018;28;97474;-75
2021/11/25 11:10:26;;;;;;;28.80;19.40;;;;;;;7.84;48.67;99577.19;4933550;28;96729;-75
2021/11/25 11:16:09;;;;;;;27.73;20.65;;;;;;;7.59;49.65;99579.75;4923444;28;97734;-76
2021/11/25 11:18:58;;;;;;;27.67;21.42;;;;;;;7.59;49.76;99572.81;4947773;28;97231;-76
2021/11/25 11:21:40;;;;;;;27.85;20.52;;;;;;;7.56;49.96;99567.66;4949772;28;96635;-76
2021/11/25 11:24:17;;;;;;;29.63;20.45;;;;;;;7.59;50.12;99572.81;4935847;28;96654;-75
2021/11/25 11:26:53;;;;;;;28.33;20.42;;;;;;;7.57;50.17;99563.31;4935431;28;98048;-75
2021/11/25 11:29:26;;;;;;;28.48;20.27;;;;;;;7.55;49.89;99552.06;4934037;28;100106;-75
2021/11/25 11:31:53;;;;;;;24.92;18.52;;;;;;;7.64;50.06;99549.13;4950610;28;96576;-76